Latest Weather Observations for Dubbo

IDN60801

Issued at 10:34 pm EDT Friday 19 December 2014 (issued every 30 minutes, with the page automatically refreshed every 10 minutes)

About weather observations | Map of weather stations | Latest weather observations for NSW | Other Formats
Station Details ID: 065070 Name: DUBBO AIRPORT AWS Lat: -32.22 Lon: 148.58 Height: 284.0 m
Data from the previous 72 hours. | See also: Recent months at Dubbo
Date/Time
EDT
Temp
°C
App
Temp
°C
Dew
Point
Rel
Hum
%
Delta-T
°C
Wind Press
QNH
hPa
Press
MSL
hPa
Rain
since 9 am
mm
Dir
 
Spd
km/h
Gust
km/h
Spd
kts
Gust
kts
19/10:30pm 19.2 14.3 2.1 32 7.9 S 17 19 9 10 1015.7 1014.4 -
19/10:00pm 20.3 15.4 2.2 30 8.5 S 17 20 9 11 1015.5 1014.2 -
19/09:30pm 19.1 15.0 2.0 32 7.9 S 13 17 7 9 1015.3 1014.0 -
19/09:00pm 20.3 16.2 2.2 30 8.5 SSW 13 17 7 9 1015.1 1013.8 0.0
19/08:30pm 22.7 18.2 2.2 26 9.8 SSW 15 22 8 12 1014.8 1013.5 -
19/08:00pm 24.1 19.0 2.9 25 10.4 SSW 19 26 10 14 1014.4 1013.0 -
19/07:30pm 25.7 20.5 3.6 24 11.1 SW 20 32 11 17 1013.9 1012.5 -
19/07:00pm 26.4 20.6 4.2 24 11.3 SW 24 35 13 19 1013.5 1012.1 -
19/06:30pm 27.0 21.3 2.8 21 12.1 SW 22 33 12 18 1013.1 1011.7 -
19/06:00pm 27.5 22.4 3.9 22 12.0 SSW 20 30 11 16 1012.8 1011.4 -
19/05:30pm 28.1 23.1 3.7 21 12.4 WSW 19 35 10 19 1012.6 1011.2 -
19/05:00pm 28.3 23.4 5.2 23 12.1 SW 20 28 11 15 1012.8 1011.4 -
19/04:30pm 28.2 22.3 5.7 24 11.9 SSW 26 39 14 21 1012.8 1011.4 -
19/04:00pm 28.9 23.2 6.9 25 11.9 WSW 26 35 14 19 1013.0 1011.6 -
19/03:30pm 27.9 22.6 6.6 26 11.4 WSW 24 41 13 22 1013.2 1011.8 -
19/03:00pm 27.4 22.6 5.6 25 11.4 WSW 20 32 11 17 1013.3 1011.9 -
19/02:30pm 27.4 22.1 6.8 27 11.0 WSW 24 43 13 23 1013.5 1012.1 -
19/02:20pm 26.8 20.7 6.8 28 10.7 WSW 28 39 15 21 1013.6 1012.2 -
19/02:00pm 26.7 21.9 7.2 29 10.5 SW 22 41 12 22 1013.7 1012.3 -
19/01:30pm 26.9 23.3 8.4 31 10.2 SW 17 30 9 16 1013.9 1012.5 -
19/01:00pm 26.3 21.8 6.9 29 10.3 SW 20 35 11 19 1014.3 1012.9 -
19/12:30pm 26.6 22.6 9.0 33 9.7 WSW 20 39 11 21 1014.6 1013.3 -
19/12:00pm 26.1 21.1 9.4 35 9.3 SW 26 39 14 21 1014.6 1013.3 -
19/11:30am 26.0 21.5 10.2 37 8.9 SW 24 35 13 19 1014.6 1013.3 0.0
19/11:00am 24.5 - 8.5 36 8.7 - - - - - 1014.5 1013.1 0.0
19/10:30am 24.5 21.4 10.4 41 7.9 SW 17 26 9 14 1014.4 1013.0 0.0
19/10:00am 24.2 21.0 11.2 44 7.4 SW 19 28 10 15 1014.3 1012.9 0.0
19/09:30am 22.4 18.7 9.6 44 7.0 SSW 19 28 10 15 1014.5 1013.1 0.0
19/09:00am 22.1 18.2 8.6 42 7.2 SSW 19 28 10 15 1014.3 1012.9 0.0
19/08:30am 21.2 17.0 8.1 43 6.9 S 20 30 11 16 1014.0 1012.6 0.0
19/08:00am 20.6 16.3 7.9 44 6.7 SSW 20 28 11 15 1013.7 1012.3 0.0
19/07:30am 19.7 17.3 8.7 49 5.8 SSW 11 20 6 11 1013.4 1012.0 0.0
19/07:00am 17.8 15.3 8.1 53 5.0 SSW 11 15 6 8 1012.9 1011.5 0.0
19/06:30am 16.7 13.4 7.9 56 4.5 SW 15 17 8 9 1012.6 1011.2 0.0
19/06:00am 15.6 12.7 6.6 55 4.5 SW 11 13 6 7 1012.0 1010.7 0.0
19/05:30am 15.4 12.5 6.4 55 4.4 SSW 11 15 6 8 1011.6 1010.3 0.0
19/05:00am 16.5 13.0 7.2 54 4.7 SSW 15 17 8 9 1011.3 1009.9 0.0
19/04:30am 15.5 13.3 6.0 53 4.6 SW 7 9 4 5 1011.0 1009.6 0.0
19/04:21am 16.3 14.2 6.7 53 4.8 SW 7 9 4 5 1010.9 1009.5 0.0
19/04:07am 16.1 14.0 6.5 53 4.8 SW 7 9 4 5 1010.8 1009.4 0.0
19/04:00am 17.6 15.8 7.1 50 5.3 SW 6 7 3 4 1010.8 1009.4 0.0
19/03:30am 17.7 15.7 6.3 47 5.7 SW 6 9 3 5 1010.6 1009.2 0.0
19/03:00am 18.4 15.5 6.6 46 6.0 SSW 11 13 6 7 1010.4 1009.0 0.0
19/02:30am 19.4 16.5 6.5 43 6.5 SSW 11 13 6 7 1010.3 1008.9 0.0
19/02:00am 20.2 16.5 6.2 40 7.1 SSW 15 24 8 13 1010.2 1008.8 0.0
19/01:30am 20.9 17.3 6.8 40 7.3 SSW 15 20 8 11 1010.1 1008.7 0.0
19/01:00am 18.6 15.6 6.1 44 6.3 W 11 15 6 8 1010.0 1008.6 0.0
19/12:30am 18.8 16.2 6.0 43 6.4 W 9 11 5 6 1009.8 1008.4 0.0
19/12:00am 19.7 17.2 6.4 42 6.8 WNW 9 11 5 6 1009.5 1008.1 0.0
 
Date/Time
EDT
Temp
°C
App
Temp
°C
Dew
Point
Rel
Hum
%
Delta-T
°C
Wind Press
QNH
hPa
Press
MSL
hPa
Rain
since 9 am
mm
Dir
 
Spd
km/h
Gust
km/h
Spd
kts
Gust
kts
18/11:30pm 21.6 19.4 6.3 37 7.8 WNW 7 9 4 5 1009.5 1008.1 0.0
18/11:00pm 21.1 18.5 5.9 37 7.7 NW 9 13 5 7 1009.4 1008.0 0.0
18/10:30pm 23.0 20.2 5.0 31 9.1 NNW 9 13 5 7 1009.2 1007.8 0.0
18/10:00pm 22.6 19.7 4.6 31 9.0 NNW 9 17 5 9 1009.0 1007.6 0.0
18/09:53pm 23.8 20.9 4.7 29 9.6 NNW 9 17 5 9 1009.1 1007.7 0.0
18/09:34pm 24.7 21.3 3.9 26 10.4 NNW 11 20 6 11 1008.9 1007.5 0.0
18/09:30pm 25.8 21.8 4.9 26 10.7 NNW 15 26 8 14 1008.9 1007.5 0.0
18/09:00pm 26.1 20.7 4.6 25 11.0 NNW 22 35 12 19 1008.3 1006.9 0.0
18/08:30pm 23.7 20.9 3.1 26 10.1 WNW 7 13 4 7 1008.0 1006.6 0.0
18/08:00pm 27.8 23.2 3.5 21 12.3 WNW 17 24 9 13 1007.4 1006.0 0.0
18/07:30pm 29.5 24.5 3.5 19 13.3 NW 19 24 10 13 1007.0 1005.6 0.0
18/07:00pm 30.6 24.6 3.6 18 14.0 WNW 24 32 13 17 1006.7 1005.3 0.0
18/06:30pm 30.4 23.8 4.2 19 13.7 NW 28 37 15 20 1006.5 1005.1 0.0
18/06:00pm 30.8 24.1 3.8 18 14.0 NW 28 37 15 20 1006.6 1005.2 0.0
18/05:30pm 31.0 25.2 6.1 21 13.4 WNW 26 37 14 20 1006.7 1005.3 0.0
18/05:00pm 31.0 25.3 6.8 22 13.2 WNW 26 44 14 24 1006.9 1005.5 0.0
18/04:30pm 31.3 26.1 7.1 22 13.3 NW 24 35 13 19 1007.1 1005.7 0.0
18/04:00pm 30.0 24.8 7.2 24 12.5 WNW 24 32 13 17 1007.5 1006.1 0.0
18/03:30pm 30.0 25.7 7.8 25 12.3 WNW 20 35 11 19 1007.6 1006.2 0.0
18/03:00pm 30.2 25.3 6.8 23 12.8 WNW 22 35 12 19 1007.7 1006.3 0.0
18/02:30pm 29.5 24.3 10.1 30 11.1 W 28 35 15 19 1008.1 1006.7 0.0
18/02:00pm 28.7 24.7 10.4 32 10.5 W 22 32 12 17 1007.9 1006.5 0.0
18/01:30pm 28.3 28.1 15.6 46 7.9 W 11 24 6 13 1007.8 1006.4 0.0
18/01:00pm 27.3 27.2 16.9 53 6.6 W 13 20 7 11 1008.2 1006.8 0.0
18/12:30pm 26.2 27.4 17.3 58 5.6 WSW 7 15 4 8 1008.4 1007.1 0.0
18/12:00pm 25.7 26.2 17.4 60 5.3 SW 11 15 6 8 1008.6 1007.2 0.0
18/11:30am 24.6 25.2 17.6 65 4.4 S 11 15 6 8 1008.8 1007.4 0.0
18/11:24am 24.6 25.2 17.8 66 4.3 S 11 15 6 8 1008.8 1007.4 0.0
18/11:05am 24.3 24.6 17.8 67 4.1 SSE 13 19 7 10 1008.4 1007.1 0.0
18/11:00am 24.2 24.0 17.7 67 4.1 SE 15 19 8 10 1008.3 1006.9 0.0
18/10:30am 23.2 22.5 17.4 70 3.6 SSE 17 20 9 11 1008.4 1007.1 0.0
18/10:20am 23.1 22.8 17.3 70 3.6 SE 15 20 8 11 1008.4 1007.1 0.0
18/10:09am 23.1 22.5 17.6 71 3.5 SE 17 22 9 12 1008.3 1006.9 0.0
18/10:00am 23.0 21.9 17.2 70 3.6 SE 19 24 10 13 1008.4 1007.1 0.0
18/09:32am 22.1 21.3 17.2 74 3.0 SE 17 22 9 12 1008.6 1007.2 0.0
18/09:30am 21.8 21.0 17.0 74 3.0 SE 17 24 9 13 1008.6 1007.2 0.0
18/09:19am 21.6 20.8 17.2 76 2.7 SE 17 24 9 13 1008.4 1007.1 0.0
18/09:00am 21.6 20.9 17.4 77 2.6 SE 17 24 9 13 1008.8 1007.4 0.0
18/08:30am 20.5 19.2 16.9 80 2.2 SE 19 24 10 13 1008.6 1007.2 0.0
18/08:00am 20.0 18.1 15.8 77 2.5 E 20 28 11 15 1008.6 1007.2 0.0
18/07:30am 18.7 16.1 15.0 79 2.2 ESE 22 32 12 17 1008.4 1007.1 0.0
18/07:00am 18.4 16.5 15.1 81 2.0 SE 19 24 10 13 1008.1 1006.7 0.0
18/06:30am 17.6 15.6 14.9 84 1.6 SE 19 24 10 13 1007.8 1006.4 0.0
18/06:00am 16.7 15.2 15.4 92 0.8 SE 17 19 9 10 1007.5 1006.1 0.0
18/05:30am 17.1 15.6 15.4 90 1.0 ESE 17 22 9 12 1006.9 1005.5 0.0
18/05:00am 17.4 15.6 15.6 89 1.1 SE 19 24 10 13 1006.8 1005.4 0.0
18/04:30am 17.5 15.5 15.5 88 1.2 ESE 20 26 11 14 1006.6 1005.2 0.0
18/04:00am 17.5 16.1 15.5 88 1.2 E 17 24 9 13 1006.9 1005.5 0.0
18/03:30am 17.8 15.5 15.6 87 1.3 ESE 22 32 12 17 1006.1 1004.7 0.0
18/03:00am 18.0 15.3 15.6 86 1.4 E 24 35 13 19 1006.3 1004.9 0.0
18/02:30am 18.1 15.7 15.4 84 1.6 E 22 30 12 16 1006.7 1005.3 0.0
18/02:15am 18.4 16.4 15.5 83 1.7 E 20 28 11 15 1006.8 1005.4 0.0
18/02:00am 18.6 16.2 15.5 82 1.9 E 22 33 12 18 1007.0 1005.6 0.0
18/01:56am 18.9 16.3 15.8 82 1.9 E 24 35 13 19 1007.0 1005.6 0.0
18/01:30am 19.2 16.5 15.7 80 2.1 E 24 32 13 17 1007.1 1005.7 0.0
18/01:00am 20.2 18.0 16.0 77 2.5 E 22 32 12 17 1007.2 1005.8 0.0
18/12:30am 21.2 19.4 16.0 72 3.2 E 20 28 11 15 1006.9 1005.5 0.0
18/12:00am 20.9 16.2 6.1 38 7.5 SE 20 26 11 14 1007.0 1005.6 0.0
 
Date/Time
EDT
Temp
°C
App
Temp
°C
Dew
Point
Rel
Hum
%
Delta-T
°C
Wind Press
QNH
hPa
Press
MSL
hPa
Rain
since 9 am
mm
Dir
 
Spd
km/h
Gust
km/h
Spd
kts
Gust
kts
17/11:30pm 21.1 16.9 5.9 37 7.7 SE 17 17 9 9 1007.0 1005.6 0.0
17/11:00pm 22.1 17.6 6.3 36 8.2 SSE 19 20 10 11 1006.7 1005.3 0.0
17/10:30pm 22.0 17.9 6.3 36 8.1 SSE 17 19 9 10 1006.7 1005.3 0.0
17/10:00pm 23.3 19.6 6.1 33 8.9 SSE 15 17 8 9 1006.6 1005.2 0.0
17/09:30pm 25.6 21.5 6.3 29 10.1 S 17 20 9 11 1006.1 1004.7 0.0
17/09:00pm 26.0 22.7 6.6 29 10.3 S 13 17 7 9 1006.3 1004.9 0.0
17/08:30pm 26.1 23.4 5.7 27 10.6 SSW 9 15 5 8 1006.1 1004.7 0.0
17/08:00pm 28.7 24.5 5.5 23 12.3 WSW 17 24 9 13 1006.0 1004.6 0.0
17/07:30pm 29.3 24.8 6.0 23 12.4 WSW 19 22 10 12 1005.7 1004.3 0.0
17/07:00pm 31.6 27.4 7.3 22 13.5 WSW 19 24 10 13 1004.8 1003.4 0.0
17/06:30pm 30.8 26.6 7.3 23 12.9 WSW 19 26 10 14 1004.3 1002.9 0.0
17/06:00pm 32.5 28.4 8.0 22 13.8 SW 19 24 10 13 1004.0 1002.6 0.0
17/05:30pm 32.5 28.7 7.4 21 13.9 WSW 17 30 9 16 1004.0 1002.6 0.0
17/05:00pm 32.3 27.9 6.5 20 14.2 WSW 19 37 10 20 1004.3 1002.9 0.0
17/04:30pm 33.0 28.5 7.1 20 14.4 W 20 28 11 15 1004.7 1003.3 0.0
17/04:00pm 33.0 29.5 7.1 20 14.4 WSW 15 26 8 14 1005.0 1003.5 0.0
17/03:30pm 32.0 28.1 7.0 21 13.8 WSW 17 26 9 14 1005.2 1003.7 0.0
17/03:13pm 32.9 29.7 8.4 22 13.9 WSW 15 35 8 19 1005.4 1004.0 0.0
17/03:02pm 32.0 28.2 7.6 22 13.6 WSW 17 32 9 17 1005.6 1004.2 0.0
17/03:00pm 31.9 27.6 6.9 21 13.8 WSW 19 32 10 17 1005.7 1004.3 0.0
17/02:30pm 31.7 27.3 6.7 21 13.7 WSW 19 28 10 15 1005.9 1004.5 0.0
17/02:00pm 31.1 25.9 5.5 20 13.7 W 22 32 12 17 1006.1 1004.7 0.0
17/01:30pm 31.1 27.5 6.9 22 13.2 W 15 20 8 11 1006.2 1004.8 0.0
17/01:00pm 30.5 27.3 7.0 23 12.9 W 13 20 7 11 1006.4 1005.0 0.0
17/12:30pm 28.9 25.2 6.3 24 12.1 W 15 26 8 14 1006.6 1005.2 0.0
17/12:00pm 28.4 25.6 7.1 26 11.6 W 11 22 6 12 1006.7 1005.3 0.0
17/11:30am 27.8 26.0 9.6 32 10.2 SW 9 15 5 8 1006.7 1005.3 0.0
17/11:00am 26.5 24.6 8.9 33 9.7 SSE 9 15 5 8 1006.8 1005.4 0.0
17/10:30am 25.8 23.4 8.8 34 9.3 SSW 11 20 6 11 1007.1 1005.7 0.0
17/10:00am 25.7 22.7 9.1 35 9.2 S 15 30 8 16 1007.1 1005.7 0.0
17/09:30am 24.2 21.5 9.0 38 8.3 SSW 13 20 7 11 1007.2 1005.8 0.0
17/09:00am 23.9 21.1 8.7 38 8.3 SSW 13 19 7 10 1007.4 1006.0 0.0
17/08:30am 23.4 19.6 9.0 40 7.8 SSW 19 26 10 14 1007.0 1005.6 0.0
17/08:00am 22.2 18.2 8.3 41 7.4 SSW 19 24 10 13 1006.9 1005.5 0.0
17/07:30am 21.4 18.4 9.3 46 6.5 SW 15 24 8 13 1006.6 1005.2 0.0
17/07:00am 20.6 18.2 10.1 51 5.8 SSW 13 19 7 10 1006.0 1004.6 0.0
17/06:30am 20.0 15.9 10.1 53 5.4 SSW 22 32 12 17 1005.4 1004.0 0.0
17/06:00am 19.6 17.2 11.4 59 4.6 SSW 15 19 8 10 1004.8 1003.4 0.0
17/05:30am 19.4 17.7 11.2 59 4.5 S 11 20 6 11 1004.1 1002.7 0.0
17/05:00am 20.4 18.7 11.1 55 5.2 SSW 11 13 6 7 1003.5 1002.1 0.0
17/04:30am 21.3 18.7 10.8 51 5.8 SSW 15 22 8 12 1003.2 1001.8 0.0
17/04:00am 22.7 18.7 10.5 46 6.8 SSW 22 32 12 17 1002.6 1001.2 0.0
17/03:30am 24.4 17.9 8.8 37 8.5 SW 33 44 18 24 1002.0 1000.5 0.0
17/03:00am 24.8 19.8 9.5 38 8.5 WSW 26 37 14 20 1001.8 1000.3 0.0
17/02:30am 25.2 20.9 10.6 40 8.2 W 24 33 13 18 1001.7 1000.2 0.0
17/02:15am 22.1 19.2 10.9 49 6.3 NW 17 50 9 27 1002.2 1000.8 0.0
17/02:00am 22.7 20.0 10.2 45 7.0 NW 15 17 8 9 1000.9 999.5 0.0
17/01:30am 23.6 21.0 10.6 44 7.3 NW 15 20 8 11 1001.5 1000.0 0.0
17/01:00am 22.9 20.7 10.7 46 6.9 NW 13 17 7 9 1001.7 1000.2 0.0
17/12:30am 22.7 21.4 11.1 48 6.5 NW 9 13 5 7 1001.9 1000.4 0.0
17/12:00am 23.1 21.3 10.9 46 6.9 NW 11 13 6 7 1002.0 1000.5 0.0
 
Date/Time
EDT
Temp
°C
App
Temp
°C
Dew
Point
Rel
Hum
%
Delta-T
°C
Wind Press
QNH
hPa
Press
MSL
hPa
Rain
since 9 am
mm
Dir
 
Spd
km/h
Gust
km/h
Spd
kts
Gust
kts
16/11:30pm 22.4 21.3 10.5 47 6.6 NNW 7 9 4 5 1002.3 1000.9 0.0
16/11:00pm 22.8 21.7 10.6 46 6.8 NNW 7 7 4 4 1002.4 1001.0 0.0

Other Formats:

Comma delimited format used in spreadsheet applications
http://www.bom.gov.au/fwo/IDN60801/IDN60801.95719.axf

JavaScript Object Notation format (JSON) in row-major order
http://www.bom.gov.au/fwo/IDN60801/IDN60801.95719.json